Thunder radar more information blitzortung!


Radar de pluja more information rain snow radar


Visita la nostra xarxa de llocs de meteo:

Template documentation
and downloads

And another site



No particular awareness of the weather is required.    There are no Weather-warnings

Pagina Historial Weather Underground text

Diari Resum Juny 11, 2017 Unitats:  Tant    Imperial   Mètric
« Previous Dia
SegĂźent Dia »
Diari Setmana Mensual Anual Personalitzada
  Maxima: Minima: Media:
Temperatura: 95.2 °F /  35.1 °C 62.4 °F /  16.9 °C 80.1 °F /  26.7 °C
Punt de rosada: 55.8 °F /  13.2 °C 37.2 °F /  2.9 °C 44.6 °F /  7 °C
Humitat: 61 % 16 % 31 %
Wind Speed: 8.1 mph /  13.0 km/h - 2.5 mph /  4 km/h
RĂ fegues de vent: 13 mph /  20.9 km/h - -
Vent:- - SSW
Pression baro: 30.1 in /  1017.8 hPa 29.9 in /  1013.8 hPa -
Precipitacions: 0 in /  0.0 mm    
Historical Graphs
 
 
Dades de taula per Juny 11, 2017
Temps Temperatura Punt de rosada Pression baro Vent Wind Speed RĂ fegues de vent Humitat Rainfall Rate (Hourly)
00:00 63.3 °F /  17.4 °C 49.3 °F /  9.6 °C 30 in /  1014.8 hPa Calm   2 mph /  3.2 km/h 60 % 0 in /  0.0 mm
00:04 71.2 °F /  21.8 °C 50.5 °F /  10.3 °C 30.1 in /  1017.8 hPa WSW 2.3 mph /  3.7 km/h 2.3 mph /  3.7 km/h 48 % 0 in /  0.0 mm
00:10 63.1 °F /  17.3 °C 48.9 °F /  9.4 °C 30 in /  1015.8 hPa WSW 2 mph /  3.2 km/h 2 mph /  3.2 km/h 60 % 0 in /  0.0 mm
00:20 63 °F /  17.2 °C 49.3 °F /  9.6 °C 30 in /  1015.8 hPa Calm   2 mph /  3.2 km/h 61 % 0 in /  0.0 mm
00:30 62.6 °F /  17.0 °C 48 °F /  8.9 °C 30 in /  1015.8 hPa Calm   1 mph /  1.6 km/h 59 % 0 in /  0.0 mm
00:40 62.4 °F /  16.9 °C 48.4 °F /  9.1 °C 30 in /  1015.8 hPa SW 2 mph /  3.2 km/h 2 mph /  3.2 km/h 60 % 0 in /  0.0 mm
00:50 62.8 °F /  17.1 °C 48.2 °F /  9.0 °C 30 in /  1015.8 hPa WSW 2 mph /  3.2 km/h 3 mph /  4.8 km/h 59 % 0 in /  0.0 mm
01:00 62.4 °F /  16.9 °C 47.8 °F /  8.8 °C 30 in /  1015.8 hPa Calm   2 mph /  3.2 km/h 59 % 0 in /  0.0 mm
01:10 62.6 °F /  17.0 °C 47.7 °F /  8.7 °C 30 in /  1015.8 hPa Calm   1 mph /  1.6 km/h 58 % 0 in /  0.0 mm
01:20 62.6 °F /  17.0 °C 47.1 °F /  8.4 °C 30 in /  1015.8 hPa Calm   1 mph /  1.6 km/h 57 % 0 in /  0.0 mm
01:30 62.4 °F /  16.9 °C 47.8 °F /  8.8 °C 30 in /  1015.8 hPa Calm     59 % 0 in /  0.0 mm
01:40 62.6 °F /  17.0 °C 48 °F /  8.9 °C 30 in /  1015.8 hPa SSW 1 mph /  1.6 km/h 2 mph /  3.2 km/h 59 % 0 in /  0.0 mm
01:50 63.1 °F /  17.3 °C 48.9 °F /  9.4 °C 30 in /  1015.8 hPa Calm   1 mph /  1.6 km/h 60 % 0 in /  0.0 mm
02:00 63.1 °F /  17.3 °C 48.6 °F /  9.2 °C 30 in /  1015.8 hPa Calm     59 % 0 in /  0.0 mm
02:10 63.3 °F /  17.4 °C 48.7 °F /  9.3 °C 30 in /  1015.8 hPa Calm   1 mph /  1.6 km/h 59 % 0 in /  0.0 mm
02:20 64.8 °F /  18.2 °C 50.2 °F /  10.1 °C 30 in /  1015.8 hPa Calm     59 % 0 in /  0.0 mm
02:30 64.6 °F /  18.1 °C 49.5 °F /  9.7 °C 30 in /  1014.8 hPa SSE 1 mph /  1.6 km/h 2 mph /  3.2 km/h 58 % 0 in /  0.0 mm
02:40 65.7 °F /  18.7 °C 50.5 °F /  10.3 °C 30 in /  1015.8 hPa Calm   2 mph /  3.2 km/h 58 % 0 in /  0.0 mm
02:50 68 °F /  20.0 °C 51.3 °F /  10.7 °C 30 in /  1015.8 hPa NNW 2 mph /  3.2 km/h 2 mph /  3.2 km/h 55 % 0 in /  0.0 mm
03:00 69.3 °F /  20.7 °C 52.3 °F /  11.3 °C 30 in /  1015.8 hPa Calm   2 mph /  3.2 km/h 55 % 0 in /  0.0 mm
03:10 70.9 °F /  21.6 °C 52.3 °F /  11.3 °C 30 in /  1015.8 hPa Calm   1 mph /  1.6 km/h 52 % 0 in /  0.0 mm
03:20 70.7 °F /  21.5 °C 52.2 °F /  11.2 °C 30 in /  1015.8 hPa Calm   1 mph /  1.6 km/h 52 % 0 in /  0.0 mm
03:30 71.8 °F /  22.1 °C 52.7 °F /  11.5 °C 30 in /  1016.8 hPa NW 1 mph /  1.6 km/h 1 mph /  1.6 km/h 51 % 0 in /  0.0 mm
03:40 71.2 °F /  21.8 °C 52.7 °F /  11.5 °C 30 in /  1015.8 hPa Calm   2 mph /  3.2 km/h 52 % 0 in /  0.0 mm
03:50 72 °F /  22.2 °C 52.9 °F /  11.6 °C 30 in /  1015.8 hPa SW 1 mph /  1.6 km/h 2 mph /  3.2 km/h 51 % 0 in /  0.0 mm
04:00 71.8 °F /  22.1 °C 52.2 °F /  11.2 °C 30 in /  1015.8 hPa SW 1 mph /  1.6 km/h 2 mph /  3.2 km/h 50 % 0 in /  0.0 mm
04:10 72.9 °F /  22.7 °C 52.5 °F /  11.4 °C 30 in /  1016.8 hPa SW 2 mph /  3.2 km/h 2 mph /  3.2 km/h 49 % 0 in /  0.0 mm
04:20 74.3 °F /  23.5 °C 53.2 °F /  11.8 °C 30 in /  1016.8 hPa Calm   3 mph /  4.8 km/h 48 % 0 in /  0.0 mm
04:30 75.4 °F /  24.1 °C 54.3 °F /  12.4 °C 30 in /  1015.8 hPa SW 1 mph /  1.6 km/h 2 mph /  3.2 km/h 48 % 0 in /  0.0 mm
04:40 76.3 °F /  24.6 °C 54.7 °F /  12.6 °C 30 in /  1015.8 hPa SSW 1 mph /  1.6 km/h 2 mph /  3.2 km/h 47 % 0 in /  0.0 mm
04:50 78.4 °F /  25.8 °C 55.2 °F /  12.9 °C 30 in /  1015.8 hPa SSE 1 mph /  1.6 km/h 2 mph /  3.2 km/h 45 % 0 in /  0.0 mm
05:00 79.5 °F /  26.4 °C 55.8 °F /  13.2 °C 30 in /  1016.8 hPa SSE 1 mph /  1.6 km/h 3 mph /  4.8 km/h 44 % 0 in /  0.0 mm
05:10 79.7 °F /  26.5 °C 55.2 °F /  12.9 °C 30 in /  1015.8 hPa SW 1 mph /  1.6 km/h 3 mph /  4.8 km/h 43 % 0 in /  0.0 mm
05:20 81 °F /  27.2 °C 54.3 °F /  12.4 °C 30 in /  1015.8 hPa SSE 1 mph /  1.6 km/h 2 mph /  3.2 km/h 40 % 0 in /  0.0 mm
05:30 82 °F /  27.8 °C 54.7 °F /  12.6 °C 30 in /  1015.8 hPa SE 1 mph /  1.6 km/h 3 mph /  4.8 km/h 39 % 0 in /  0.0 mm
05:40 81.5 °F /  27.5 °C 52.7 °F /  11.5 °C 30 in /  1015.8 hPa WSW 2 mph /  3.2 km/h 3 mph /  4.8 km/h 37 % 0 in /  0.0 mm
05:50 83.7 °F /  28.7 °C 50.7 °F /  10.4 °C 30 in /  1015.8 hPa WSW 1 mph /  1.6 km/h 3 mph /  4.8 km/h 32 % 0 in /  0.0 mm
06:00 84.6 °F /  29.2 °C 50.5 °F /  10.3 °C 30 in /  1015.8 hPa SE 1 mph /  1.6 km/h 3 mph /  4.8 km/h 31 % 0 in /  0.0 mm
06:10 86.2 °F /  30.1 °C 50.2 °F /  10.1 °C 30 in /  1015.8 hPa SE 1 mph /  1.6 km/h 3 mph /  4.8 km/h 29 % 0 in /  0.0 mm
06:20 86 °F /  30.0 °C 49.1 °F /  9.5 °C 30 in /  1015.8 hPa SSE 2 mph /  3.2 km/h 3 mph /  4.8 km/h 28 % 0 in /  0.0 mm
06:30 87.6 °F /  30.9 °C 50.5 °F /  10.3 °C 30 in /  1015.8 hPa SSE 1 mph /  1.6 km/h 3 mph /  4.8 km/h 28 % 0 in /  0.0 mm
06:40 88.5 °F /  31.4 °C 52.2 °F /  11.2 °C 30 in /  1015.8 hPa WSW 1 mph /  1.6 km/h 3 mph /  4.8 km/h 29 % 0 in /  0.0 mm
06:50 88.3 °F /  31.3 °C 50.2 °F /  10.1 °C 30 in /  1014.8 hPa SE 3 mph /  4.8 km/h 3 mph /  4.8 km/h 27 % 0 in /  0.0 mm
07:00 88 °F /  31.1 °C 48.7 °F /  9.3 °C 30 in /  1014.8 hPa ESE 3 mph /  4.8 km/h 6 mph /  9.7 km/h 26 % 0 in /  0.0 mm
07:10 88.9 °F /  31.6 °C 50.5 °F /  10.3 °C 30 in /  1014.8 hPa ENE 2 mph /  3.2 km/h 3 mph /  4.8 km/h 27 % 0 in /  0.0 mm
07:20 89.2 °F /  31.8 °C 49.8 °F /  9.9 °C 30 in /  1015.8 hPa East 3 mph /  4.8 km/h 5 mph /  8.0 km/h 26 % 0 in /  0.0 mm
07:30 91.8 °F /  33.2 °C 53.1 °F /  11.7 °C 30 in /  1015.8 hPa SSE 2 mph /  3.2 km/h 4 mph /  6.4 km/h 27 % 0 in /  0.0 mm
07:40 92.8 °F /  33.8 °C 50.7 °F /  10.4 °C 30 in /  1015.8 hPa South 2 mph /  3.2 km/h 4 mph /  6.4 km/h 24 % 0 in /  0.0 mm
07:50 92.3 °F /  33.5 °C 52.5 °F /  11.4 °C 30 in /  1015.8 hPa SSW 1 mph /  1.6 km/h 5 mph /  8.0 km/h 26 % 0 in /  0.0 mm
08:00 92.7 °F /  33.7 °C 49.5 °F /  9.7 °C 30 in /  1015.8 hPa SW 2 mph /  3.2 km/h 3 mph /  4.8 km/h 23 % 0 in /  0.0 mm
08:10 92.7 °F /  33.7 °C 50.5 °F /  10.3 °C 30 in /  1015.8 hPa SE 3 mph /  4.8 km/h 3 mph /  4.8 km/h 24 % 0 in /  0.0 mm
08:20 92.1 °F /  33.4 °C 47.8 °F /  8.8 °C 30 in /  1015.8 hPa SSE 5 mph /  8.0 km/h 5 mph /  8.0 km/h 22 % 0 in /  0.0 mm
08:30 90.9 °F /  32.7 °C 47.8 °F /  8.8 °C 30 in /  1015.8 hPa East 6 mph /  9.7 km/h 6 mph /  9.7 km/h 23 % 0 in /  0.0 mm
08:40 92.3 °F /  33.5 °C 49.1 °F /  9.5 °C 30 in /  1015.8 hPa East 3 mph /  4.8 km/h 6 mph /  9.7 km/h 23 % 0 in /  0.0 mm
08:50 91 °F /  32.8 °C 48 °F /  8.9 °C 30 in /  1014.8 hPa East 5 mph /  8.0 km/h 6 mph /  9.7 km/h 23 % 0 in /  0.0 mm
09:00 91.2 °F /  32.9 °C 48.2 °F /  9.0 °C 30 in /  1014.8 hPa East 7 mph /  11.3 km/h 9 mph /  14.5 km/h 23 % 0 in /  0.0 mm
09:10 90.7 °F /  32.6 °C 47.8 °F /  8.8 °C 30 in /  1014.8 hPa East 8 mph /  12.9 km/h 8 mph /  12.9 km/h 23 % 0 in /  0.0 mm
09:20 90.7 °F /  32.6 °C 47.8 °F /  8.8 °C 30 in /  1014.8 hPa East 7 mph /  11.3 km/h 7 mph /  11.3 km/h 23 % 0 in /  0.0 mm
09:30 90.9 °F /  32.7 °C 47.8 °F /  8.8 °C 30 in /  1014.8 hPa East 5 mph /  8.0 km/h 7 mph /  11.3 km/h 23 % 0 in /  0.0 mm
09:40 91 °F /  32.8 °C 48 °F /  8.9 °C 30 in /  1014.8 hPa East 6 mph /  9.7 km/h 7 mph /  11.3 km/h 23 % 0 in /  0.0 mm
09:50 91.2 °F /  32.9 °C 48.2 °F /  9.0 °C 30 in /  1014.8 hPa ENE 6 mph /  9.7 km/h 12 mph /  19.3 km/h 23 % 0 in /  0.0 mm
10:00 90.5 °F /  32.5 °C 46.6 °F /  8.1 °C 30 in /  1014.8 hPa East 3 mph /  4.8 km/h 8 mph /  12.9 km/h 22 % 0 in /  0.0 mm
10:10 90.9 °F /  32.7 °C 46.8 °F /  8.2 °C 30 in /  1014.8 hPa ESE 7 mph /  11.3 km/h 7 mph /  11.3 km/h 22 % 0 in /  0.0 mm
10:20 92.7 °F /  33.7 °C 46.9 °F /  8.3 °C 30 in /  1014.8 hPa SE 2 mph /  3.2 km/h 10 mph /  16.1 km/h 21 % 0 in /  0.0 mm
10:30 94.8 °F /  34.9 °C 48.7 °F /  9.3 °C 30 in /  1014.8 hPa SSW 3 mph /  4.8 km/h 7 mph /  11.3 km/h 21 % 0 in /  0.0 mm
10:40 95.2 °F /  35.1 °C 45 °F /  7.2 °C 30 in /  1014.8 hPa SW 6 mph /  9.7 km/h 6 mph /  9.7 km/h 18 % 0 in /  0.0 mm
10:50 95.2 °F /  35.1 °C 46.4 °F /  8.0 °C 30 in /  1014.8 hPa SSW 6 mph /  9.7 km/h 8 mph /  12.9 km/h 19 % 0 in /  0.0 mm
11:00 94.5 °F /  34.7 °C 45.9 °F /  7.7 °C 30 in /  1014.8 hPa SSW 6 mph /  9.7 km/h 9 mph /  14.5 km/h 19 % 0 in /  0.0 mm
11:10 95.2 °F /  35.1 °C 43.5 °F /  6.4 °C 30 in /  1014.8 hPa SW 3 mph /  4.8 km/h 5 mph /  8.0 km/h 17 % 0 in /  0.0 mm
11:20 95.2 °F /  35.1 °C 43.5 °F /  6.4 °C 30 in /  1014.8 hPa WSW 6 mph /  9.7 km/h 8 mph /  12.9 km/h 17 % 0 in /  0.0 mm
11:30 94.3 °F /  34.6 °C 44.2 °F /  6.8 °C 30 in /  1014.8 hPa SW 5 mph /  8.0 km/h 10 mph /  16.1 km/h 18 % 0 in /  0.0 mm
11:40 92.7 °F /  33.7 °C 43 °F /  6.1 °C 30 in /  1014.8 hPa SW 5 mph /  8.0 km/h 11 mph /  17.7 km/h 18 % 0 in /  0.0 mm
11:50 92.7 °F /  33.7 °C 41.5 °F /  5.3 °C 30 in /  1014.8 hPa SW 6 mph /  9.7 km/h 11 mph /  17.7 km/h 17 % 0 in /  0.0 mm
12:00 92.8 °F /  33.8 °C 43.2 °F /  6.2 °C 30 in /  1014.8 hPa SW 3 mph /  4.8 km/h 6 mph /  9.7 km/h 18 % 0 in /  0.0 mm
12:10 92.1 °F /  33.4 °C 39.6 °F /  4.2 °C 29.9 in /  1013.8 hPa SW 6 mph /  9.7 km/h 13 mph /  20.9 km/h 16 % 0 in /  0.0 mm
12:20 91.9 °F /  33.3 °C 39.4 °F /  4.1 °C 30 in /  1014.8 hPa SW 5 mph /  8.0 km/h 11 mph /  17.7 km/h 16 % 0 in /  0.0 mm
12:30 91.8 °F /  33.2 °C 40.6 °F /  4.8 °C 30 in /  1014.8 hPa SW 7 mph /  11.3 km/h 8 mph /  12.9 km/h 17 % 0 in /  0.0 mm
12:40 91.4 °F /  33.0 °C 40.5 °F /  4.7 °C 29.9 in /  1013.8 hPa SW 6 mph /  9.7 km/h 6 mph /  9.7 km/h 17 % 0 in /  0.0 mm
12:50 91.8 °F /  33.2 °C 40.6 °F /  4.8 °C 29.9 in /  1013.8 hPa SW 3 mph /  4.8 km/h 6 mph /  9.7 km/h 17 % 0 in /  0.0 mm
13:00 90.7 °F /  32.6 °C 39.9 °F /  4.4 °C 29.9 in /  1013.8 hPa SW 5 mph /  8.0 km/h 11 mph /  17.7 km/h 17 % 0 in /  0.0 mm
13:10 90.3 °F /  32.4 °C 37.9 °F /  3.3 °C 29.9 in /  1013.8 hPa SW 6 mph /  9.7 km/h 12 mph /  19.3 km/h 16 % 0 in /  0.0 mm
13:20 89.6 °F /  32.0 °C 37.6 °F /  3.1 °C 29.9 in /  1013.8 hPa SW 5 mph /  8.0 km/h 8 mph /  12.9 km/h 16 % 0 in /  0.0 mm
13:30 89.1 °F /  31.7 °C 38.7 °F /  3.7 °C 29.9 in /  1013.8 hPa SW 8 mph /  12.9 km/h 10 mph /  16.1 km/h 17 % 0 in /  0.0 mm
13:40 89.1 °F /  31.7 °C 38.7 °F /  3.7 °C 29.9 in /  1013.8 hPa SW 3 mph /  4.8 km/h 8 mph /  12.9 km/h 17 % 0 in /  0.0 mm
13:50 87.8 °F /  31.0 °C 39 °F /  3.9 °C 29.9 in /  1013.8 hPa SW 6 mph /  9.7 km/h 11 mph /  17.7 km/h 18 % 0 in /  0.0 mm
14:00 87.8 °F /  31.0 °C 39 °F /  3.9 °C 29.9 in /  1013.8 hPa SSW 3 mph /  4.8 km/h 9 mph /  14.5 km/h 18 % 0 in /  0.0 mm
14:10 87.1 °F /  30.6 °C 38.5 °F /  3.6 °C 29.9 in /  1013.8 hPa SW 6 mph /  9.7 km/h 6 mph /  9.7 km/h 18 % 0 in /  0.0 mm
14:20 86.9 °F /  30.5 °C 39.7 °F /  4.3 °C 30 in /  1014.8 hPa SW 5 mph /  8.0 km/h 6 mph /  9.7 km/h 19 % 0 in /  0.0 mm
14:30 86.4 °F /  30.2 °C 39.2 °F /  4.0 °C 30 in /  1014.8 hPa SW 5 mph /  8.0 km/h 6 mph /  9.7 km/h 19 % 0 in /  0.0 mm
14:50 85.6 °F /  29.8 °C 39.9 °F /  4.4 °C 30 in /  1014.8 hPa SW 2 mph /  3.2 km/h 7 mph /  11.3 km/h 20 % 0 in /  0.0 mm
19:51 85.3 °F /  29.6 °C 39.7 °F /  4.3 °C 30 in /  1014.8 hPa SW 2.3 mph /  3.7 km/h 4.3 mph /  6.9 km/h 20 % 0 in /  0.0 mm
19:56 84.7 °F /  29.3 °C 37.9 °F /  3.3 °C 30 in /  1014.8 hPa SW 5.8 mph /  9.3 km/h 5.8 mph /  9.3 km/h 19 % 0 in /  0.0 mm
20:01 84.2 °F /  29.0 °C 37.6 °F /  3.1 °C 30 in /  1014.8 hPa SW 6.9 mph /  11.1 km/h 6.9 mph /  11.1 km/h 19 % 0 in /  0.0 mm
20:06 84 °F /  28.9 °C 38.7 °F /  3.7 °C 30 in /  1014.8 hPa SSE 6.9 mph /  11.1 km/h 6.9 mph /  11.1 km/h 20 % 0 in /  0.0 mm
20:11 84 °F /  28.9 °C 39.9 °F /  4.4 °C 30 in /  1014.8 hPa WSW 4.9 mph /  7.9 km/h 4.9 mph /  7.9 km/h 21 % 0 in /  0.0 mm
20:16 83.7 °F /  28.7 °C 39.6 °F /  4.2 °C 30 in /  1014.8 hPa SSW 4.6 mph /  7.4 km/h 4.6 mph /  7.4 km/h 21 % 0 in /  0.0 mm
20:21 83.3 °F /  28.5 °C 39.4 °F /  4.1 °C 30 in /  1014.8 hPa SW 4.6 mph /  7.4 km/h 4.6 mph /  7.4 km/h 21 % 0 in /  0.0 mm
20:26 82.9 °F /  28.3 °C 39 °F /  3.9 °C 30 in /  1014.8 hPa WSW 3.5 mph /  5.6 km/h 3.5 mph /  5.6 km/h 21 % 0 in /  0.0 mm
20:31 82.6 °F /  28.1 °C 38.7 °F /  3.7 °C 30 in /  1014.8 hPa SW 8.1 mph /  13.0 km/h 8.1 mph /  13.0 km/h 21 % 0 in /  0.0 mm
20:36 82 °F /  27.8 °C 38.1 °F /  3.4 °C 30 in /  1014.8 hPa SW 5.8 mph /  9.3 km/h 5.8 mph /  9.3 km/h 21 % 0 in /  0.0 mm
20:41 81.7 °F /  27.6 °C 37.9 °F /  3.3 °C 30 in /  1014.8 hPa WSW 5.8 mph /  9.3 km/h 5.8 mph /  9.3 km/h 21 % 0 in /  0.0 mm
20:46 81.3 °F /  27.4 °C 37.6 °F /  3.1 °C 30 in /  1014.8 hPa SW 4.6 mph /  7.4 km/h 4.6 mph /  7.4 km/h 21 % 0 in /  0.0 mm
20:51 81 °F /  27.2 °C 37.2 °F /  2.9 °C 30 in /  1014.8 hPa SW 4.6 mph /  7.4 km/h 4.6 mph /  7.4 km/h 21 % 0 in /  0.0 mm
20:56 80.8 °F /  27.1 °C 38.5 °F /  3.6 °C 30 in /  1014.8 hPa SW 4.6 mph /  7.4 km/h 4.6 mph /  7.4 km/h 22 % 0 in /  0.0 mm
21:01 80.2 °F /  26.8 °C 37.9 °F /  3.3 °C 30 in /  1014.8 hPa SW 3.5 mph /  5.6 km/h 3.5 mph /  5.6 km/h 22 % 0 in /  0.0 mm
21:06 79.9 °F /  26.6 °C 37.6 °F /  3.1 °C 30 in /  1014.8 hPa SW 4.6 mph /  7.4 km/h 4.6 mph /  7.4 km/h 22 % 0 in /  0.0 mm
21:11 79.5 °F /  26.4 °C 38.5 °F /  3.6 °C 30 in /  1014.8 hPa SW 3.5 mph /  5.6 km/h 3.5 mph /  5.6 km/h 23 % 0 in /  0.0 mm
21:16 79.2 °F /  26.2 °C 38.1 °F /  3.4 °C 30 in /  1014.8 hPa SW 2.9 mph /  4.7 km/h 2.9 mph /  4.7 km/h 23 % 0 in /  0.0 mm
21:21 79 °F /  26.1 °C 37.9 °F /  3.3 °C 30 in /  1014.8 hPa West 2.3 mph /  3.7 km/h 2.3 mph /  3.7 km/h 23 % 0 in /  0.0 mm
21:26 78.8 °F /  26.0 °C 38.8 °F /  3.8 °C 30 in /  1014.8 hPa West 1.2 mph /  1.9 km/h   24 % 0 in /  0.0 mm
21:31 78.4 °F /  25.8 °C 38.7 °F /  3.7 °C 30 in /  1014.8 hPa West 1.2 mph /  1.9 km/h   24 % 0 in /  0.0 mm
21:36 78.3 °F /  25.7 °C 38.5 °F /  3.6 °C 30 in /  1014.8 hPa NW 2.3 mph /  3.7 km/h 2.3 mph /  3.7 km/h 24 % 0 in /  0.0 mm
21:41 78.1 °F /  25.6 °C 39.4 °F /  4.1 °C 30 in /  1014.8 hPa Calm     25 % 0 in /  0.0 mm
21:46 77.9 °F /  25.5 °C 39.2 °F /  4.0 °C 30 in /  1014.8 hPa NNE 1.6 mph /  2.6 km/h 1.6 mph /  2.6 km/h 25 % 0 in /  0.0 mm
21:51 77.7 °F /  25.4 °C 39 °F /  3.9 °C 30 in /  1014.8 hPa NNE 1.6 mph /  2.6 km/h   25 % 0 in /  0.0 mm
21:56 77.7 °F /  25.4 °C 39 °F /  3.9 °C 30 in /  1014.8 hPa Calm     25 % 0 in /  0.0 mm
22:01 77.5 °F /  25.3 °C 38.8 °F /  3.8 °C 30 in /  1014.8 hPa Calm     25 % 0 in /  0.0 mm
22:06 77.5 °F /  25.3 °C 38.8 °F /  3.8 °C 30 in /  1014.8 hPa Calm     25 % 0 in /  0.0 mm
22:11 77.2 °F /  25.1 °C 38.7 °F /  3.7 °C 30 in /  1014.8 hPa WSW 1.6 mph /  2.6 km/h 2 mph /  3.2 km/h 25 % 0 in /  0.0 mm
22:16 77.2 °F /  25.1 °C 38.7 °F /  3.7 °C 30 in /  1014.8 hPa WNW 1.2 mph /  1.9 km/h   25 % 0 in /  0.0 mm
22:21 77 °F /  25.0 °C 38.5 °F /  3.6 °C 30 in /  1014.8 hPa WSW 2.3 mph /  3.7 km/h 2.3 mph /  3.7 km/h 25 % 0 in /  0.0 mm
22:26 77 °F /  25.0 °C 38.5 °F /  3.6 °C 30 in /  1014.8 hPa SW 1.6 mph /  2.6 km/h 1.6 mph /  2.6 km/h 25 % 0 in /  0.0 mm
22:31 76.8 °F /  24.9 °C 39.4 °F /  4.1 °C 30 in /  1015.8 hPa West 1.2 mph /  1.9 km/h 1.2 mph /  1.9 km/h 26 % 0 in /  0.0 mm
22:36 76.6 °F /  24.8 °C 39.2 °F /  4.0 °C 30 in /  1015.8 hPa Calm     26 % 0 in /  0.0 mm
22:41 76.5 °F /  24.7 °C 39 °F /  3.9 °C 30 in /  1015.8 hPa Calm     26 % 0 in /  0.0 mm
22:46 76.3 °F /  24.6 °C 38.8 °F /  3.8 °C 30 in /  1015.8 hPa Calm     26 % 0 in /  0.0 mm
22:50 67.1 °F /  19.5 °C 43.2 °F /  6.2 °C 30 in /  1015.8 hPa SW 1 mph /  1.6 km/h 2 mph /  3.2 km/h 42 % 0 in /  0.0 mm
22:51 75.9 °F /  24.4 °C 38.7 °F /  3.7 °C 30 in /  1015.8 hPa Calm     26 % 0 in /  0.0 mm
22:56 75.7 °F /  24.3 °C 38.5 °F /  3.6 °C 30 in /  1015.8 hPa Calm     26 % 0 in /  0.0 mm
23:00 67.1 °F /  19.5 °C 43.9 °F /  6.6 °C 30 in /  1015.8 hPa Calm   1 mph /  1.6 km/h 43 % 0 in /  0.0 mm
23:01 75.6 °F /  24.2 °C 39.2 °F /  4.0 °C 30 in /  1015.8 hPa Calm     27 % 0 in /  0.0 mm
23:06 75.4 °F /  24.1 °C 39 °F /  3.9 °C 30 in /  1015.8 hPa Calm     27 % 0 in /  0.0 mm
23:10 66.9 °F /  19.4 °C 43.7 °F /  6.5 °C 30 in /  1015.8 hPa SW 1 mph /  1.6 km/h 2 mph /  3.2 km/h 43 % 0 in /  0.0 mm
23:11 75.2 °F /  24.0 °C 38.8 °F /  3.8 °C 30 in /  1015.8 hPa West 0.9 mph /  1.4 km/h   27 % 0 in /  0.0 mm
23:16 75.2 °F /  24.0 °C 39.7 °F /  4.3 °C 30 in /  1015.8 hPa Calm     28 % 0 in /  0.0 mm
23:20 67.1 °F /  19.5 °C 43.9 °F /  6.6 °C 30 in /  1015.8 hPa SW 2 mph /  3.2 km/h 2 mph /  3.2 km/h 43 % 0 in /  0.0 mm
23:21 75 °F /  23.9 °C 39.7 °F /  4.3 °C 30 in /  1015.8 hPa SW 1.2 mph /  1.9 km/h 1.2 mph /  1.9 km/h 28 % 0 in /  0.0 mm
23:26 74.8 °F /  23.8 °C 40.5 °F /  4.7 °C 30 in /  1015.8 hPa Calm     29 % 0 in /  0.0 mm
23:30 67.3 °F /  19.6 °C 44.6 °F /  7.0 °C 30 in /  1015.8 hPa Calm   2 mph /  3.2 km/h 44 % 0 in /  0.0 mm
23:31 74.5 °F /  23.6 °C 40.1 °F /  4.5 °C 30 in /  1015.8 hPa SW 1.2 mph /  1.9 km/h 1.2 mph /  1.9 km/h 29 % 0 in /  0.0 mm
23:36 74.3 °F /  23.5 °C 39.9 °F /  4.4 °C 30 in /  1015.8 hPa Calm     29 % 0 in /  0.0 mm
23:40 67.1 °F /  19.5 °C 45 °F /  7.2 °C 30 in /  1015.8 hPa Calm   2 mph /  3.2 km/h 45 % 0 in /  0.0 mm
23:41 74.1 °F /  23.4 °C 40.6 °F /  4.8 °C 30 in /  1015.8 hPa Calm     30 % 0 in /  0.0 mm
23:47 73.9 °F /  23.3 °C 41.4 °F /  5.2 °C 30 in /  1015.8 hPa Calm     31 % 0 in /  0.0 mm
23:50 66.6 °F /  19.2 °C 44.1 °F /  6.7 °C 30 in /  1015.8 hPa WSW 1 mph /  1.6 km/h 2 mph /  3.2 km/h 44 % 0 in /  0.0 mm
23:52 73.8 °F /  23.2 °C 42.1 °F /  5.6 °C 30 in /  1015.8 hPa SW 0.9 mph /  1.4 km/h   32 % 0 in /  0.0 mm
23:57 73.4 °F /  23.0 °C 42.4 °F /  5.8 °C 30 in /  1015.8 hPa Calm     33 % 0 in /  0.0 mm
Meteo Sesrovires
Elogis d' Weather Underground - 3.25 mb

Guio original per  Jim McMurry - jmcmurry@mwt.net Adaptat per a la plantilla per  Wim van der Kuil - Leuven-Template.eu

Trobareu la nostra informacio del temps tambe a:

Weather Underground

AWEKAS